createdAt,value
2023-02-09T00:00:08.030Z,18.06
2023-02-09T00:00:35.995Z,18.06
2023-02-09T00:00:49.987Z,18.07
2023-02-09T00:01:03.968Z,18.06
2023-02-09T00:01:17.979Z,18.06
2023-02-09T00:01:31.969Z,18.05
2023-02-09T00:01:46.070Z,18.04
2023-02-09T00:02:00.226Z,18.04
2023-02-09T00:02:14.405Z,18.05
2023-02-09T00:02:28.548Z,18.04
2023-02-09T00:02:42.571Z,18.05
2023-02-09T00:02:56.546Z,18.05
2023-02-09T00:03:10.563Z,18.04
2023-02-09T00:03:24.612Z,18.04
2023-02-09T00:03:38.660Z,18.04
2023-02-09T00:03:52.859Z,18.03
2023-02-09T00:04:06.905Z,18.03
2023-02-09T00:04:20.894Z,18.04
2023-02-09T00:04:34.874Z,18.04
2023-02-09T00:04:48.877Z,18.03
2023-02-09T00:05:02.863Z,18.04
2023-02-09T00:05:16.867Z,18.04
2023-02-09T00:05:44.842Z,18.04
2023-02-09T00:05:58.831Z,18.04
2023-02-09T00:06:12.851Z,18.02
2023-02-09T00:06:26.846Z,18.05
2023-02-09T00:06:40.845Z,18.04
2023-02-09T00:06:54.836Z,18.03
2023-02-09T00:07:08.828Z,18.03
2023-02-09T00:07:22.813Z,18.03
2023-02-09T00:07:36.834Z,18.03
2023-02-09T00:07:50.834Z,18.01
2023-02-09T00:08:04.828Z,18.02
2023-02-09T00:08:18.825Z,18.02
2023-02-09T00:08:32.819Z,18.02
2023-02-09T00:08:46.832Z,18.02
2023-02-09T00:09:00.840Z,18.03
2023-02-09T00:09:14.856Z,18.02
2023-02-09T00:09:29.001Z,18.02
2023-02-09T00:09:42.992Z,18.02
2023-02-09T00:09:56.987Z,18.01
2023-02-09T00:10:10.982Z,18.01
2023-02-09T00:10:24.997Z,18.02
2023-02-09T00:10:38.999Z,18.01
2023-02-09T00:10:52.995Z,18.01
2023-02-09T00:11:06.994Z,18.01
2023-02-09T00:11:20.996Z,18.01
2023-02-09T00:11:34.977Z,18.02
2023-02-09T00:11:48.967Z,18.01
2023-02-09T00:12:02.962Z,18.01
2023-02-09T00:12:16.948Z,18.00
2023-02-09T00:12:30.926Z,18.00
2023-02-09T00:12:44.908Z,18.01
2023-02-09T00:12:58.911Z,18.00
2023-02-09T00:13:12.897Z,18.01
2023-02-09T00:13:26.891Z,18.00
2023-02-09T00:13:54.860Z,18.00
2023-02-09T00:14:08.836Z,18.00
2023-02-09T00:14:22.828Z,17.99
2023-02-09T00:14:36.831Z,18.00
2023-02-09T00:14:50.827Z,17.99
2023-02-09T00:15:04.822Z,18.00
2023-02-09T00:15:18.810Z,17.99
2023-02-09T00:15:32.804Z,17.99
2023-02-09T00:15:46.790Z,17.99
2023-02-09T00:16:00.876Z,17.99
2023-02-09T00:16:14.998Z,17.99
2023-02-09T00:16:29.125Z,17.99
2023-02-09T00:16:43.312Z,17.98
2023-02-09T00:16:57.305Z,17.98
2023-02-09T00:17:11.295Z,17.98
2023-02-09T00:17:25.283Z,17.98
2023-02-09T00:17:39.271Z,17.98
2023-02-09T00:17:53.295Z,17.98
2023-02-09T00:18:07.275Z,17.98
2023-02-09T00:18:35.249Z,17.97
2023-02-09T00:18:49.252Z,17.97
2023-02-09T00:19:03.246Z,17.97
2023-02-09T00:19:17.236Z,17.97
2023-02-09T00:19:33.258Z,17.97
2023-02-09T00:19:44.861Z,17.96
2023-02-09T00:19:58.854Z,17.97
2023-02-09T00:20:12.843Z,17.96
2023-02-09T00:20:26.838Z,17.97
2023-02-09T00:20:40.813Z,17.97
2023-02-09T00:20:54.816Z,17.96
2023-02-09T00:21:08.797Z,17.96
2023-02-09T00:21:22.790Z,17.97
2023-02-09T00:21:36.778Z,17.97
2023-02-09T00:21:50.765Z,17.96
2023-02-09T00:22:04.743Z,17.97
2023-02-09T00:22:18.751Z,17.96
2023-02-09T00:22:46.758Z,17.96
2023-02-09T00:23:00.748Z,17.95
2023-02-09T00:23:14.744Z,17.96
2023-02-09T00:23:28.724Z,17.96
2023-02-09T00:23:42.709Z,17.95
2023-02-09T00:23:56.725Z,17.95
2023-02-09T00:24:10.909Z,17.94
2023-02-09T00:24:24.981Z,17.94
2023-02-09T00:24:38.982Z,17.95
2023-02-09T00:24:52.964Z,17.96
2023-02-09T00:25:06.966Z,17.95
2023-02-09T00:25:20.977Z,17.96
2023-02-09T00:25:34.975Z,17.95
2023-02-09T00:25:48.990Z,17.94
2023-02-09T00:26:03.039Z,17.95
2023-02-09T00:26:17.027Z,17.95
2023-02-09T00:26:31.017Z,17.93
2023-02-09T00:26:45.004Z,17.94
2023-02-09T00:26:58.997Z,17.93
2023-02-09T00:27:12.981Z,17.94
2023-02-09T00:27:26.990Z,17.94
2023-02-09T00:27:54.987Z,17.93
2023-02-09T00:28:09.025Z,17.93
2023-02-09T00:28:23.118Z,17.93
2023-02-09T00:28:37.134Z,17.93
2023-02-09T00:28:51.138Z,17.94
2023-02-09T00:29:05.203Z,17.93
2023-02-09T00:29:19.296Z,17.93
2023-02-09T00:29:33.278Z,17.94
2023-02-09T00:29:47.261Z,17.93
2023-02-09T00:30:01.242Z,17.93
2023-02-09T00:30:15.487Z,17.93
2023-02-09T00:30:29.544Z,17.92
2023-02-09T00:30:43.986Z,17.93
2023-02-09T00:30:58.171Z,17.91
2023-02-09T00:31:26.283Z,17.92
2023-02-09T00:31:40.350Z,17.93
2023-02-09T00:31:54.386Z,17.92
2023-02-09T00:32:08.559Z,17.92
2023-02-09T00:32:22.656Z,17.91
2023-02-09T00:32:36.628Z,17.91
2023-02-09T00:32:50.618Z,17.91
2023-02-09T00:33:04.611Z,17.92
2023-02-09T00:33:18.595Z,17.91
2023-02-09T00:33:32.608Z,17.92
2023-02-09T00:33:46.622Z,17.91
2023-02-09T00:34:00.606Z,17.92
2023-02-09T00:34:14.598Z,17.91
2023-02-09T00:34:28.609Z,17.91
2023-02-09T00:34:42.623Z,17.90
2023-02-09T00:34:56.620Z,17.90
2023-02-09T00:35:10.614Z,17.91
2023-02-09T00:35:24.608Z,17.91
2023-02-09T00:35:38.601Z,17.91
2023-02-09T00:36:06.574Z,17.91
2023-02-09T00:36:20.568Z,17.91
2023-02-09T00:36:34.587Z,17.91
2023-02-09T00:36:48.576Z,17.91
2023-02-09T00:37:02.590Z,17.90
2023-02-09T00:37:16.584Z,17.91
2023-02-09T00:37:30.575Z,17.89
2023-02-09T00:37:44.558Z,17.90
2023-02-09T00:37:58.566Z,17.89
2023-02-09T00:38:12.561Z,17.89
2023-02-09T00:38:26.549Z,17.89
2023-02-09T00:38:40.542Z,17.89
2023-02-09T00:38:54.545Z,17.88
2023-02-09T00:39:08.555Z,17.90
2023-02-09T00:39:22.543Z,17.89
2023-02-09T00:39:36.524Z,17.88
2023-02-09T00:39:50.506Z,17.88
2023-02-09T00:40:04.489Z,17.88
2023-02-09T00:40:18.467Z,17.88
2023-02-09T00:40:46.677Z,17.89
2023-02-09T00:41:00.802Z,17.88
2023-02-09T00:41:14.803Z,17.88
2023-02-09T00:41:28.808Z,17.88
2023-02-09T00:41:42.833Z,17.88
2023-02-09T00:41:56.841Z,17.89
2023-02-09T00:42:10.845Z,17.88
2023-02-09T00:42:24.833Z,17.89
2023-02-09T00:42:38.816Z,17.89
2023-02-09T00:42:52.796Z,17.89
2023-02-09T00:43:06.797Z,17.89
2023-02-09T00:43:20.778Z,17.89
2023-02-09T00:43:34.769Z,17.89
2023-02-09T00:43:48.755Z,17.90
2023-02-09T00:44:02.741Z,17.89
2023-02-09T00:44:16.732Z,17.89
2023-02-09T00:44:30.722Z,17.89
2023-02-09T00:44:44.713Z,17.89
2023-02-09T00:44:58.699Z,17.89
2023-02-09T00:45:26.659Z,17.88
2023-02-09T00:45:40.664Z,17.89
2023-02-09T00:45:54.778Z,17.89
2023-02-09T00:46:08.829Z,17.89
2023-02-09T00:46:22.855Z,17.89
2023-02-09T00:46:36.859Z,17.88
2023-02-09T00:46:50.900Z,17.88
2023-02-09T00:47:04.919Z,17.88
2023-02-09T00:47:18.912Z,17.88
2023-02-09T00:47:33.178Z,17.88
2023-02-09T00:47:47.189Z,17.88
2023-02-09T00:48:01.173Z,17.89
2023-02-09T00:48:15.163Z,17.88
2023-02-09T00:48:29.168Z,17.88
2023-02-09T00:48:43.162Z,17.89
2023-02-09T00:48:57.153Z,17.87
2023-02-09T00:49:11.148Z,17.87
2023-02-09T00:49:25.132Z,17.88
2023-02-09T00:49:39.143Z,17.89
2023-02-09T00:49:53.125Z,17.87
2023-02-09T00:50:07.108Z,17.85
2023-02-09T00:50:35.069Z,17.87
2023-02-09T00:50:49.052Z,17.87
2023-02-09T00:51:03.039Z,17.88
2023-02-09T00:51:17.029Z,17.86
2023-02-09T00:51:31.020Z,17.88
2023-02-09T00:51:45.021Z,17.87
2023-02-09T00:51:59.004Z,17.86
2023-02-09T00:52:13.007Z,17.89
2023-02-09T00:52:27.003Z,17.87
2023-02-09T00:52:41.015Z,17.88
2023-02-09T00:52:55.005Z,17.87
2023-02-09T00:53:08.996Z,17.86
2023-02-09T00:53:22.983Z,17.87
2023-02-09T00:53:36.971Z,17.87
2023-02-09T00:53:50.951Z,17.86
2023-02-09T00:54:04.938Z,17.87
2023-02-09T00:54:18.952Z,17.86
2023-02-09T00:54:32.944Z,17.85
2023-02-09T00:54:46.928Z,17.85
2023-02-09T00:55:00.921Z,17.86
2023-02-09T00:55:14.918Z,17.85
2023-02-09T00:55:28.920Z,17.84
2023-02-09T00:55:42.908Z,17.86
2023-02-09T00:55:56.908Z,17.85
2023-02-09T00:56:10.902Z,17.86
2023-02-09T00:56:24.902Z,17.85
2023-02-09T00:56:38.879Z,17.85
2023-02-09T00:56:52.875Z,17.84
2023-02-09T00:57:06.868Z,17.85
2023-02-09T00:57:20.881Z,17.85
2023-02-09T00:57:34.873Z,17.84
2023-02-09T00:57:48.870Z,17.85
2023-02-09T00:58:02.894Z,17.85
2023-02-09T00:58:16.881Z,17.85
2023-02-09T00:58:44.865Z,17.83
2023-02-09T00:58:58.853Z,17.84
2023-02-09T00:59:12.848Z,17.84
2023-02-09T00:59:26.844Z,17.83
2023-02-09T00:59:40.940Z,17.84
2023-02-09T00:59:54.932Z,17.85
2023-02-09T01:00:08.924Z,17.84
2023-02-09T01:00:22.930Z,17.84
2023-02-09T01:00:36.949Z,17.84
2023-02-09T01:00:51.022Z,17.83
2023-02-09T01:01:05.131Z,17.83
2023-02-09T01:01:19.189Z,17.83
2023-02-09T01:01:33.345Z,17.83
2023-02-09T01:01:47.391Z,17.83
2023-02-09T01:02:01.399Z,17.84
2023-02-09T01:02:15.396Z,17.83
2023-02-09T01:02:29.395Z,17.83
2023-02-09T01:02:43.373Z,17.84
2023-02-09T01:02:57.366Z,17.83
2023-02-09T01:03:25.362Z,17.83
2023-02-09T01:03:39.379Z,17.83
2023-02-09T01:03:53.394Z,17.83
2023-02-09T01:04:07.376Z,17.81
2023-02-09T01:04:21.413Z,17.81
2023-02-09T01:04:35.426Z,17.82
2023-02-09T01:04:49.497Z,17.82
2023-02-09T01:05:03.621Z,17.81
2023-02-09T01:05:17.677Z,17.81
2023-02-09T01:05:31.670Z,17.81
2023-02-09T01:05:45.658Z,17.81
2023-02-09T01:05:59.640Z,17.81
2023-02-09T01:06:13.627Z,17.81
2023-02-09T01:06:27.639Z,17.80
2023-02-09T01:06:41.637Z,17.80
2023-02-09T01:06:55.610Z,17.81
2023-02-09T01:07:09.599Z,17.81
2023-02-09T01:07:23.586Z,17.82
2023-02-09T01:07:37.578Z,17.81
2023-02-09T01:08:05.530Z,17.81
2023-02-09T01:08:19.518Z,17.80
2023-02-09T01:08:33.526Z,17.80
2023-02-09T01:08:47.535Z,17.80
2023-02-09T01:09:01.546Z,17.80
2023-02-09T01:09:15.552Z,17.79
2023-02-09T01:09:29.612Z,17.79
2023-02-09T01:09:43.630Z,17.80
2023-02-09T01:09:57.642Z,17.79
2023-02-09T01:10:11.624Z,17.80
2023-02-09T01:10:25.607Z,17.80
2023-02-09T01:10:39.605Z,17.80
2023-02-09T01:10:53.606Z,17.80
2023-02-09T01:11:07.590Z,17.80
2023-02-09T01:11:21.592Z,17.80
2023-02-09T01:11:35.580Z,17.80
2023-02-09T01:11:49.564Z,17.81
2023-02-09T01:12:03.558Z,17.80
2023-02-09T01:12:17.546Z,17.80
2023-02-09T01:12:31.525Z,17.81
2023-02-09T01:12:45.526Z,17.80
2023-02-09T01:12:59.509Z,17.80
2023-02-09T01:13:13.493Z,17.79
2023-02-09T01:13:27.475Z,17.80
2023-02-09T01:13:41.455Z,17.79
2023-02-09T01:13:55.456Z,17.80
2023-02-09T01:14:09.440Z,17.79
2023-02-09T01:14:23.425Z,17.79
2023-02-09T01:14:37.461Z,17.79
2023-02-09T01:14:51.465Z,17.78
2023-02-09T01:15:05.462Z,17.78
2023-02-09T01:15:19.481Z,17.78
2023-02-09T01:15:33.485Z,17.78
2023-02-09T01:15:47.493Z,17.78
2023-02-09T01:16:15.525Z,17.79
2023-02-09T01:16:29.587Z,17.78
2023-02-09T01:16:43.678Z,17.78
2023-02-09T01:16:57.762Z,17.78
2023-02-09T01:17:11.786Z,17.77
2023-02-09T01:17:25.778Z,17.78
2023-02-09T01:17:39.777Z,17.79
2023-02-09T01:17:53.760Z,17.78
2023-02-09T01:18:07.776Z,17.78
2023-02-09T01:18:21.756Z,17.77
2023-02-09T01:18:35.766Z,17.79
2023-02-09T01:18:49.775Z,17.76
2023-02-09T01:19:03.799Z,17.77
2023-02-09T01:19:17.791Z,17.78
2023-02-09T01:19:31.780Z,17.77
2023-02-09T01:19:45.782Z,17.76
2023-02-09T01:20:00.300Z,17.78
2023-02-09T01:20:14.308Z,17.78
2023-02-09T01:20:28.326Z,17.78
2023-02-09T01:20:56.308Z,17.77
2023-02-09T01:21:10.383Z,17.76
2023-02-09T01:21:24.375Z,17.77
2023-02-09T01:21:38.394Z,17.77
2023-02-09T01:21:52.379Z,17.77
2023-02-09T01:22:06.392Z,17.76
2023-02-09T01:22:20.371Z,17.77
2023-02-09T01:22:34.368Z,17.76
2023-02-09T01:22:48.355Z,17.77
2023-02-09T01:23:02.347Z,17.76
2023-02-09T01:23:16.362Z,17.76
2023-02-09T01:23:30.376Z,17.76
2023-02-09T01:23:44.377Z,17.75
2023-02-09T01:23:58.365Z,17.75
2023-02-09T01:24:12.358Z,17.75
2023-02-09T01:24:26.348Z,17.75
2023-02-09T01:24:40.732Z,17.75
2023-02-09T01:24:54.729Z,17.75
2023-02-09T01:25:08.721Z,17.74
2023-02-09T01:25:36.724Z,17.74
2023-02-09T01:25:50.707Z,17.75
2023-02-09T01:26:04.717Z,17.75
2023-02-09T01:26:18.719Z,17.74
2023-02-09T01:26:32.715Z,17.74
2023-02-09T01:26:46.709Z,17.75
2023-02-09T01:27:00.693Z,17.75
2023-02-09T01:27:14.707Z,17.76
2023-02-09T01:27:28.699Z,17.76
2023-02-09T01:27:42.694Z,17.75
2023-02-09T01:27:56.681Z,17.75
2023-02-09T01:28:10.773Z,17.75
2023-02-09T01:28:24.850Z,17.75
2023-02-09T01:28:39.087Z,17.74
2023-02-09T01:28:53.071Z,17.74
2023-02-09T01:29:07.082Z,17.73
2023-02-09T01:29:21.076Z,17.75
2023-02-09T01:29:35.090Z,17.74
2023-02-09T01:29:49.077Z,17.74
2023-02-09T01:30:03.083Z,17.73
2023-02-09T01:30:17.065Z,17.74
2023-02-09T01:30:45.511Z,17.73
2023-02-09T01:30:59.828Z,17.74
2023-02-09T01:31:13.940Z,17.73
2023-02-09T01:31:28.103Z,17.73
2023-02-09T01:31:42.371Z,17.74
2023-02-09T01:31:56.626Z,17.73
2023-02-09T01:32:10.780Z,17.73
2023-02-09T01:32:24.759Z,17.72
2023-02-09T01:32:38.753Z,17.73
2023-02-09T01:32:52.743Z,17.73
2023-02-09T01:33:06.735Z,17.73
2023-02-09T01:33:20.723Z,17.73
2023-02-09T01:33:34.716Z,17.72
2023-02-09T01:33:48.719Z,17.72
2023-02-09T01:34:16.668Z,17.72
2023-02-09T01:34:30.655Z,17.73
2023-02-09T01:34:44.631Z,17.72
2023-02-09T01:34:58.627Z,17.72
2023-02-09T01:35:12.631Z,17.72
2023-02-09T01:35:26.633Z,17.71
2023-02-09T01:35:40.629Z,17.71
2023-02-09T01:35:54.637Z,17.71
2023-02-09T01:36:08.621Z,17.71
2023-02-09T01:36:22.638Z,17.71
2023-02-09T01:36:36.620Z,17.70
2023-02-09T01:36:50.629Z,17.72
2023-02-09T01:37:04.626Z,17.72
2023-02-09T01:37:18.640Z,17.71
2023-02-09T01:37:32.625Z,17.71
2023-02-09T01:37:46.607Z,17.71
2023-02-09T01:38:00.594Z,17.70
2023-02-09T01:38:14.582Z,17.70
2023-02-09T01:38:28.569Z,17.71
2023-02-09T01:38:56.554Z,17.71
2023-02-09T01:39:10.543Z,17.71
2023-02-09T01:39:24.529Z,17.71
2023-02-09T01:39:38.530Z,17.71
2023-02-09T01:39:52.541Z,17.70
2023-02-09T01:40:06.534Z,17.71
2023-02-09T01:40:20.527Z,17.71
2023-02-09T01:40:34.516Z,17.69
2023-02-09T01:40:48.508Z,17.71
2023-02-09T01:41:02.494Z,17.70
2023-02-09T01:41:16.496Z,17.70
2023-02-09T01:41:30.535Z,17.69
2023-02-09T01:41:44.534Z,17.69
2023-02-09T01:41:58.566Z,17.69
2023-02-09T01:42:12.571Z,17.69
2023-02-09T01:42:26.559Z,17.70
2023-02-09T01:42:40.562Z,17.70
2023-02-09T01:42:54.557Z,17.68
2023-02-09T01:43:08.548Z,17.69
2023-02-09T01:43:36.492Z,17.67
2023-02-09T01:43:50.500Z,17.69
2023-02-09T01:44:04.512Z,17.68
2023-02-09T01:44:18.500Z,17.69
2023-02-09T01:44:32.486Z,17.67
2023-02-09T01:44:46.483Z,17.67
2023-02-09T01:45:00.501Z,17.67
2023-02-09T01:45:14.511Z,17.68
2023-02-09T01:45:28.526Z,17.67
2023-02-09T01:45:42.516Z,17.68
2023-02-09T01:45:56.616Z,17.68
2023-02-09T01:46:10.688Z,17.67
2023-02-09T01:46:24.721Z,17.66
2023-02-09T01:46:38.823Z,17.67
2023-02-09T01:46:52.871Z,17.66
2023-02-09T01:47:06.897Z,17.66
2023-02-09T01:47:20.900Z,17.66
2023-02-09T01:47:34.912Z,17.66
2023-02-09T01:47:48.904Z,17.66
2023-02-09T01:48:02.899Z,17.66
2023-02-09T01:48:16.876Z,17.64
2023-02-09T01:48:44.843Z,17.66
2023-02-09T01:48:58.835Z,17.65
2023-02-09T01:49:12.813Z,17.65
2023-02-09T01:49:26.808Z,17.65
2023-02-09T01:49:40.795Z,17.66
2023-02-09T01:49:54.798Z,17.65
2023-02-09T01:50:08.777Z,17.66
2023-02-09T01:50:35.558Z,17.65
2023-02-09T01:50:49.544Z,17.65
2023-02-09T01:51:03.534Z,17.65
2023-02-09T01:51:17.517Z,17.65
2023-02-09T01:51:31.531Z,17.66
2023-02-09T01:51:45.535Z,17.65
2023-02-09T01:51:59.543Z,17.65
2023-02-09T01:52:13.531Z,17.65
2023-02-09T01:52:27.615Z,17.66
2023-02-09T01:52:41.603Z,17.65
2023-02-09T01:52:55.608Z,17.64
2023-02-09T01:53:09.601Z,17.64
2023-02-09T01:53:23.591Z,17.63
2023-02-09T01:53:37.567Z,17.64
2023-02-09T01:53:51.555Z,17.64
2023-02-09T01:54:05.544Z,17.63
2023-02-09T01:54:19.538Z,17.64
2023-02-09T01:54:33.522Z,17.64
2023-02-09T01:54:47.509Z,17.64
2023-02-09T01:55:01.516Z,17.65
2023-02-09T01:55:15.532Z,17.64
2023-02-09T01:55:29.504Z,17.64
2023-02-09T01:55:43.497Z,17.64
2023-02-09T01:55:57.480Z,17.64
2023-02-09T01:56:25.443Z,17.64
2023-02-09T01:56:39.439Z,17.64
2023-02-09T01:56:53.438Z,17.64
2023-02-09T01:57:07.452Z,17.63
2023-02-09T01:57:21.433Z,17.63
2023-02-09T01:57:35.429Z,17.65
2023-02-09T01:57:49.417Z,17.64
2023-02-09T01:58:03.415Z,17.64
2023-02-09T01:58:17.425Z,17.64
2023-02-09T01:58:31.426Z,17.63
2023-02-09T01:58:45.413Z,17.64
2023-02-09T01:58:59.412Z,17.63
2023-02-09T01:59:13.405Z,17.64
2023-02-09T01:59:27.401Z,17.64
2023-02-09T01:59:41.387Z,17.63
2023-02-09T01:59:55.386Z,17.63
2023-02-09T02:00:09.438Z,17.63
2023-02-09T02:00:23.448Z,17.63
2023-02-09T02:00:37.433Z,17.63
2023-02-09T02:01:05.423Z,17.62
2023-02-09T02:01:19.475Z,17.62
2023-02-09T02:01:33.666Z,17.61
2023-02-09T02:01:47.713Z,17.62
2023-02-09T02:02:01.740Z,17.61
2023-02-09T02:02:15.762Z,17.62
2023-02-09T02:02:29.818Z,17.61
2023-02-09T02:02:43.911Z,17.62
2023-02-09T02:02:57.916Z,17.61
2023-02-09T02:03:11.923Z,17.61
2023-02-09T02:03:25.910Z,17.62
2023-02-09T02:03:39.896Z,17.61
2023-02-09T02:03:53.885Z,17.60
2023-02-09T02:04:07.868Z,17.62
2023-02-09T02:04:21.849Z,17.61
2023-02-09T02:04:35.837Z,17.61
2023-02-09T02:04:49.830Z,17.61
2023-02-09T02:05:03.852Z,17.60
2023-02-09T02:05:17.866Z,17.60
2023-02-09T02:05:45.846Z,17.60
2023-02-09T02:05:59.845Z,17.60
2023-02-09T02:06:13.862Z,17.62
2023-02-09T02:06:27.865Z,17.59
2023-02-09T02:06:41.845Z,17.60
2023-02-09T02:06:55.843Z,17.60
2023-02-09T02:07:09.821Z,17.60
2023-02-09T02:07:23.812Z,17.59
2023-02-09T02:07:37.787Z,17.59
2023-02-09T02:07:51.812Z,17.58
2023-02-09T02:08:05.804Z,17.60
2023-02-09T02:08:19.818Z,17.59
2023-02-09T02:08:33.799Z,17.59
2023-02-09T02:08:47.774Z,17.58
2023-02-09T02:09:01.766Z,17.59
2023-02-09T02:09:15.753Z,17.59
2023-02-09T02:09:29.748Z,17.59
2023-02-09T02:09:43.742Z,17.59
2023-02-09T02:09:57.737Z,17.59
2023-02-09T02:10:25.714Z,17.59
2023-02-09T02:10:39.712Z,17.59
2023-02-09T02:10:53.698Z,17.60
2023-02-09T02:11:07.690Z,17.59
2023-02-09T02:11:21.666Z,17.59
2023-02-09T02:11:35.660Z,17.58
2023-02-09T02:11:50.265Z,17.59
2023-02-09T02:12:04.263Z,17.58
2023-02-09T02:12:18.255Z,17.59
2023-02-09T02:12:32.257Z,17.59
2023-02-09T02:12:46.278Z,17.58
2023-02-09T02:13:00.287Z,17.58
2023-02-09T02:13:14.268Z,17.58
2023-02-09T02:13:28.251Z,17.59
2023-02-09T02:13:56.209Z,17.57
2023-02-09T02:14:10.200Z,17.57
2023-02-09T02:14:24.199Z,17.56
2023-02-09T02:14:38.180Z,17.57
2023-02-09T02:14:52.177Z,17.57
2023-02-09T02:15:06.174Z,17.57
2023-02-09T02:15:20.162Z,17.58
2023-02-09T02:15:34.159Z,17.58
2023-02-09T02:15:48.194Z,17.57
2023-02-09T02:16:02.252Z,17.58
2023-02-09T02:16:16.344Z,17.57
2023-02-09T02:16:30.359Z,17.57
2023-02-09T02:16:44.344Z,17.58
2023-02-09T02:16:58.332Z,17.58
2023-02-09T02:17:12.327Z,17.57
2023-02-09T02:17:26.315Z,17.57
2023-02-09T02:17:40.303Z,17.57
2023-02-09T02:17:54.293Z,17.56
2023-02-09T02:18:08.330Z,17.56
2023-02-09T02:18:36.292Z,17.57
2023-02-09T02:18:50.282Z,17.56
2023-02-09T02:19:04.275Z,17.57
2023-02-09T02:19:18.256Z,17.54
2023-02-09T02:19:32.247Z,17.56
2023-02-09T02:19:46.235Z,17.54
2023-02-09T02:20:00.303Z,17.56
2023-02-09T02:20:14.295Z,17.56
2023-02-09T02:20:28.283Z,17.57
2023-02-09T02:20:42.357Z,17.55
2023-02-09T02:20:56.378Z,17.56
2023-02-09T02:21:10.370Z,17.55
2023-02-09T02:21:24.355Z,17.55
2023-02-09T02:21:38.403Z,17.56
2023-02-09T02:21:52.510Z,17.56
2023-02-09T02:22:06.500Z,17.55
2023-02-09T02:22:20.492Z,17.55
2023-02-09T02:22:34.504Z,17.54
2023-02-09T02:22:48.495Z,17.55
2023-02-09T02:23:16.463Z,17.55
2023-02-09T02:23:30.490Z,17.56
2023-02-09T02:23:44.474Z,17.54
2023-02-09T02:23:58.478Z,17.54
2023-02-09T02:24:12.471Z,17.54
2023-02-09T02:24:26.454Z,17.53
2023-02-09T02:24:40.434Z,17.54
2023-02-09T02:24:54.430Z,17.54
2023-02-09T02:25:08.418Z,17.54
2023-02-09T02:25:22.443Z,17.54
2023-02-09T02:25:36.422Z,17.53
2023-02-09T02:25:50.415Z,17.54
2023-02-09T02:26:06.770Z,17.54
2023-02-09T02:26:18.452Z,17.54
2023-02-09T02:26:32.439Z,17.54
2023-02-09T02:26:46.428Z,17.54
2023-02-09T02:27:00.430Z,17.53
2023-02-09T02:27:14.438Z,17.54
2023-02-09T02:27:28.419Z,17.54
2023-02-09T02:27:56.446Z,17.53
2023-02-09T02:28:10.550Z,17.54
2023-02-09T02:28:24.583Z,17.53
2023-02-09T02:28:38.587Z,17.53
2023-02-09T02:28:52.624Z,17.53
2023-02-09T02:29:06.618Z,17.54
2023-02-09T02:29:20.605Z,17.52
2023-02-09T02:29:34.597Z,17.53
2023-02-09T02:29:48.613Z,17.53
2023-02-09T02:30:02.625Z,17.53
2023-02-09T02:30:16.615Z,17.52
2023-02-09T02:30:30.643Z,17.53
2023-02-09T02:30:45.149Z,17.51
2023-02-09T02:30:59.489Z,17.52
2023-02-09T02:31:13.786Z,17.52
2023-02-09T02:31:27.997Z,17.52
2023-02-09T02:31:42.191Z,17.53
2023-02-09T02:31:56.354Z,17.53
2023-02-09T02:32:10.390Z,17.53
2023-02-09T02:32:24.453Z,17.52
2023-02-09T02:32:38.461Z,17.51
2023-02-09T02:32:52.448Z,17.52
2023-02-09T02:33:06.442Z,17.53
2023-02-09T02:33:20.423Z,17.52
2023-02-09T02:33:34.413Z,17.51
2023-02-09T02:33:48.416Z,17.52
2023-02-09T02:34:02.419Z,17.51
2023-02-09T02:34:16.412Z,17.52
2023-02-09T02:34:30.424Z,17.51
2023-02-09T02:34:44.403Z,17.52
2023-02-09T02:34:58.404Z,17.51
2023-02-09T02:35:12.407Z,17.51
2023-02-09T02:35:26.403Z,17.51
2023-02-09T02:35:40.377Z,17.51
2023-02-09T02:35:54.364Z,17.49
2023-02-09T02:36:08.341Z,17.51
2023-02-09T02:36:36.297Z,17.51
2023-02-09T02:36:50.285Z,17.50
2023-02-09T02:37:04.271Z,17.50
2023-02-09T02:37:18.262Z,17.49
2023-02-09T02:37:32.253Z,17.50
2023-02-09T02:37:46.252Z,17.49
2023-02-09T02:38:00.236Z,17.48
2023-02-09T02:38:14.231Z,17.50
2023-02-09T02:38:28.255Z,17.49
2023-02-09T02:38:42.249Z,17.51
2023-02-09T02:38:56.235Z,17.49
2023-02-09T02:39:10.238Z,17.49
2023-02-09T02:39:24.239Z,17.50
2023-02-09T02:39:38.248Z,17.49
2023-02-09T02:39:52.230Z,17.50
2023-02-09T02:40:06.234Z,17.50
2023-02-09T02:40:20.220Z,17.48
2023-02-09T02:40:34.244Z,17.49
2023-02-09T02:40:48.235Z,17.49
2023-02-09T02:41:16.188Z,17.49
2023-02-09T02:41:30.185Z,17.48
2023-02-09T02:41:44.178Z,17.49
2023-02-09T02:41:58.170Z,17.49
2023-02-09T02:42:12.149Z,17.49
2023-02-09T02:42:26.149Z,17.50
2023-02-09T02:42:40.163Z,17.50
2023-02-09T02:42:54.182Z,17.49
2023-02-09T02:43:08.171Z,17.49
2023-02-09T02:43:22.166Z,17.50
2023-02-09T02:43:36.164Z,17.49
2023-02-09T02:43:50.173Z,17.49
2023-02-09T02:44:04.200Z,17.48
2023-02-09T02:44:18.192Z,17.48
2023-02-09T02:44:32.178Z,17.49
2023-02-09T02:44:46.172Z,17.48
2023-02-09T02:45:00.156Z,17.47
2023-02-09T02:45:14.148Z,17.47
2023-02-09T02:45:28.137Z,17.47
2023-02-09T02:45:56.152Z,17.47
2023-02-09T02:46:10.186Z,17.47
2023-02-09T02:46:24.306Z,17.47
2023-02-09T02:46:38.404Z,17.47
2023-02-09T02:46:52.409Z,17.47
2023-02-09T02:47:06.408Z,17.47
2023-02-09T02:47:20.396Z,17.48
2023-02-09T02:47:34.430Z,17.47
2023-02-09T02:47:48.469Z,17.46
2023-02-09T02:48:02.459Z,17.47
2023-02-09T02:48:16.440Z,17.46
2023-02-09T02:48:30.434Z,17.47
2023-02-09T02:48:44.428Z,17.46
2023-02-09T02:48:58.424Z,17.47
2023-02-09T02:49:15.085Z,17.47
2023-02-09T02:49:26.654Z,17.47
2023-02-09T02:49:40.644Z,17.46
2023-02-09T02:49:54.643Z,17.46
2023-02-09T02:50:08.635Z,17.46
2023-02-09T02:50:36.667Z,17.46
2023-02-09T02:50:50.718Z,17.45
2023-02-09T02:51:04.774Z,17.47
2023-02-09T02:51:18.824Z,17.46
2023-02-09T02:51:32.812Z,17.45
2023-02-09T02:51:46.803Z,17.46
2023-02-09T02:52:00.801Z,17.45
2023-02-09T02:52:14.819Z,17.45
2023-02-09T02:52:28.802Z,17.45
2023-02-09T02:52:42.809Z,17.44
2023-02-09T02:52:56.795Z,17.45
2023-02-09T02:53:10.787Z,17.44
2023-02-09T02:53:24.885Z,17.44
2023-02-09T02:53:38.900Z,17.44
2023-02-09T02:53:52.884Z,17.44
2023-02-09T02:54:06.878Z,17.45
2023-02-09T02:54:20.851Z,17.45
2023-02-09T02:54:34.833Z,17.44
2023-02-09T02:54:48.836Z,17.44
2023-02-09T02:55:02.857Z,17.43
2023-02-09T02:55:16.856Z,17.44
2023-02-09T02:55:30.863Z,17.44
2023-02-09T02:55:44.882Z,17.43
2023-02-09T02:55:58.871Z,17.43
2023-02-09T02:56:12.864Z,17.43
2023-02-09T02:56:26.863Z,17.43
2023-02-09T02:56:40.869Z,17.44
2023-02-09T02:56:54.865Z,17.43
2023-02-09T02:57:08.850Z,17.43
2023-02-09T02:57:22.844Z,17.43
2023-02-09T02:57:36.824Z,17.42
2023-02-09T02:57:50.834Z,17.42
2023-02-09T02:58:04.827Z,17.43
2023-02-09T02:58:18.819Z,17.43
2023-02-09T02:58:32.811Z,17.42
2023-02-09T02:58:46.801Z,17.41
2023-02-09T02:59:14.759Z,17.41
2023-02-09T02:59:28.748Z,17.42
2023-02-09T02:59:42.730Z,17.42
2023-02-09T02:59:56.720Z,17.41
2023-02-09T03:00:10.709Z,17.43
2023-02-09T03:00:24.707Z,17.42
2023-02-09T03:00:38.704Z,17.43
2023-02-09T03:00:52.693Z,17.42
2023-02-09T03:01:06.678Z,17.42
2023-02-09T03:01:20.765Z,17.42
2023-02-09T03:01:34.853Z,17.42
2023-02-09T03:01:48.855Z,17.41
2023-02-09T03:02:02.845Z,17.43
2023-02-09T03:02:16.842Z,17.43
2023-02-09T03:02:30.825Z,17.41
2023-02-09T03:02:44.811Z,17.42
2023-02-09T03:02:58.799Z,17.43
2023-02-09T03:03:12.826Z,17.41
2023-02-09T03:03:26.817Z,17.42
2023-02-09T03:03:54.855Z,17.42
2023-02-09T03:04:08.871Z,17.42
2023-02-09T03:04:22.855Z,17.42
2023-02-09T03:04:36.841Z,17.42
2023-02-09T03:04:50.834Z,17.41
2023-02-09T03:05:04.853Z,17.41
2023-02-09T03:05:18.927Z,17.40
2023-02-09T03:05:33.061Z,17.40
2023-02-09T03:05:47.077Z,17.40
2023-02-09T03:06:01.076Z,17.41
2023-02-09T03:06:15.060Z,17.41
2023-02-09T03:06:29.062Z,17.40
2023-02-09T03:06:43.068Z,17.41
2023-02-09T03:06:57.057Z,17.41
2023-02-09T03:07:11.054Z,17.41
2023-02-09T03:07:25.053Z,17.42
2023-02-09T03:07:39.035Z,17.40
2023-02-09T03:07:53.064Z,17.40
2023-02-09T03:08:07.043Z,17.39
2023-02-09T03:08:34.986Z,17.41
2023-02-09T03:08:48.983Z,17.40
2023-02-09T03:09:02.964Z,17.40
2023-02-09T03:09:16.951Z,17.40